Time,TemperatureF,DewpointF,PressureIn,WindDirection,WindDirectionDegrees,WindSpeedMPH,WindSpeedGustMPH,Humidity,HourlyPrecipIn,Conditions,Clouds,dailyrainin,SoftwareType,DateUTC
2013-04-02 00:00:00,53.3,38.9,29.90,NW,319,0.0,0.0,58,0.00,,,0.01,Wunderground v.1.15,2013-04-02 04:00:00,
2013-04-02 00:01:00,53.1,38.7,29.90,NW,313,1.0,2.0,58,0.00,,,0.00,Wunderground v.1.15,2013-04-02 04:01:00,
2013-04-02 00:03:00,53.0,38.2,29.90,NW,312,0.0,2.0,57,0.00,,,0.00,Wunderground v.1.15,2013-04-02 04:03:00,
2013-04-02 00:08:00,52.9,37.6,29.90,NW,306,2.0,5.0,56,0.00,,,0.00,Wunderground v.1.15,2013-04-02 04:08:00,
2013-04-02 00:14:00,53.2,38.4,29.90,NW,314,1.0,4.0,57,0.00,,,0.00,Wunderground v.1.15,2013-04-02 04:14:00,
2013-04-02 00:19:00,53.4,36.7,29.91,WNW,292,1.0,3.0,53,0.00,,,0.00,Wunderground v.1.15,2013-04-02 04:19:00,
2013-04-02 00:25:00,53.5,36.8,29.91,WNW,286,6.0,7.0,53,0.00,,,0.00,Wunderground v.1.15,2013-04-02 04:25:00,
2013-04-02 00:30:00,53.5,36.3,29.91,WNW,286,11.0,11.0,52,0.00,,,0.00,Wunderground v.1.15,2013-04-02 04:30:00,
2013-04-02 00:35:00,53.7,36.0,29.91,NNW,329,4.0,11.0,51,0.00,,,0.00,Wunderground v.1.15,2013-04-02 04:35:00,
2013-04-02 00:40:00,53.8,36.1,29.91,NW,304,3.0,5.0,51,0.00,,,0.00,Wunderground v.1.15,2013-04-02 04:40:00,
2013-04-02 00:46:00,53.6,35.9,29.92,NW,309,3.0,6.0,51,0.00,,,0.00,Wunderground v.1.15,2013-04-02 04:46:00,
2013-04-02 00:51:00,53.5,35.8,29.92,NW,304,1.0,6.0,51,0.00,,,0.00,Wunderground v.1.15,2013-04-02 04:51:00,
2013-04-02 00:57:00,53.2,35.5,29.92,WNW,296,2.0,6.0,51,0.00,,,0.00,Wunderground v.1.15,2013-04-02 04:57:00,
2013-04-02 01:02:00,53.1,35.4,29.92,WNW,292,3.0,14.0,51,0.00,,,-99.99,WeatherLink 6.0.0,2013-04-02 05:02:00,
2013-04-02 01:08:00,53.1,35.4,29.92,NW,307,2.0,5.0,51,0.00,,,0.00,Wunderground v.1.15,2013-04-02 05:08:00,
2013-04-02 01:14:00,53.0,35.3,29.93,NW,318,0.0,4.0,51,0.00,,,0.00,Wunderground v.1.15,2013-04-02 05:14:00,
2013-04-02 01:20:00,52.6,35.5,29.93,West,280,1.0,3.0,52,0.00,,,0.00,Wunderground v.1.15,2013-04-02 05:20:00,
2013-04-02 01:25:00,52.4,35.3,29.93,WNW,291,4.0,5.0,52,0.00,,,0.00,Wunderground v.1.15,2013-04-02 05:25:00,
2013-04-02 01:30:00,52.4,35.3,29.93,NW,306,3.0,3.0,52,0.00,,,0.00,Wunderground v.1.15,2013-04-02 05:30:00,
2013-04-02 01:35:00,52.4,35.3,29.93,NW,311,4.0,5.0,52,0.00,,,0.00,Wunderground v.1.15,2013-04-02 05:35:00,
2013-04-02 01:41:00,52.3,35.2,29.93,WNW,302,4.0,4.0,52,0.00,,,0.00,Wunderground v.1.15,2013-04-02 05:41:00,
2013-04-02 01:46:00,52.1,35.5,29.93,NW,309,0.0,4.0,53,0.00,,,0.00,Wunderground v.1.15,2013-04-02 05:46:00,
2013-04-02 01:52:00,51.8,34.7,29.93,WNW,303,3.0,6.0,52,0.00,,,0.00,Wunderground v.1.15,2013-04-02 05:52:00,
2013-04-02 01:57:00,51.7,35.1,29.93,WNW,292,2.0,6.0,53,0.00,,,0.00,Wunderground v.1.15,2013-04-02 05:57:00,
2013-04-02 02:03:00,51.6,35.0,29.94,WNW,292,3.0,11.0,53,0.00,,,-99.99,WeatherLink 6.0.0,2013-04-02 06:03:00,
2013-04-02 02:08:00,51.4,34.8,29.94,WNW,299,2.0,6.0,53,0.00,,,0.00,Wunderground v.1.15,2013-04-02 06:08:00,
2013-04-02 02:13:00,51.2,34.2,29.94,NW,309,4.0,4.0,52,0.00,,,0.00,Wunderground v.1.15,2013-04-02 06:13:00,
2013-04-02 02:18:00,51.0,34.9,29.94,NNE,17,0.0,4.0,54,0.00,,,0.00,Wunderground v.1.15,2013-04-02 06:18:00,
2013-04-02 02:23:00,50.6,35.0,29.94,NNE,17,0.0,1.0,55,0.00,,,0.00,Wunderground v.1.15,2013-04-02 06:23:00,
2013-04-02 02:28:00,50.1,34.5,29.95,WNW,294,0.0,2.0,55,0.00,,,0.00,Wunderground v.1.15,2013-04-02 06:28:00,
2013-04-02 02:33:00,50.0,34.9,29.95,WNW,292,1.0,6.0,56,0.00,,,-99.99,WeatherLink 6.0.0,2013-04-02 06:33:00,
2013-04-02 02:38:00,49.4,35.2,29.95,WNW,294,1.0,2.0,58,0.00,,,0.00,Wunderground v.1.15,2013-04-02 06:38:00,
2013-04-02 02:43:00,49.0,34.9,29.95,WNW,294,0.0,2.0,58,0.00,,,0.00,Wunderground v.1.15,2013-04-02 06:43:00,
2013-04-02 02:48:00,48.8,35.1,29.95,WNW,296,0.0,2.0,59,0.00,,,0.00,Wunderground v.1.15,2013-04-02 06:48:00,
2013-04-02 02:53:00,48.4,35.1,29.95,WNW,296,0.0,1.0,60,0.00,,,0.00,Wunderground v.1.15,2013-04-02 06:53:00,
2013-04-02 02:58:00,48.0,35.2,29.95,WNW,296,0.0,2.0,61,0.00,,,0.00,Wunderground v.1.15,2013-04-02 06:58:00,
2013-04-02 03:03:00,47.8,35.0,29.95,WNW,295,1.0,4.0,61,0.00,,,0.00,Wunderground v.1.15,2013-04-02 07:03:00,
2013-04-02 03:08:00,47.7,34.9,29.95,WNW,300,0.0,4.0,61,0.00,,,0.00,Wunderground v.1.15,2013-04-02 07:08:00,
2013-04-02 03:13:00,47.6,35.2,29.95,WNW,302,0.0,2.0,62,0.00,,,0.00,Wunderground v.1.15,2013-04-02 07:13:00,
2013-04-02 03:18:00,47.4,35.0,29.95,WNW,298,0.0,4.0,62,0.00,,,0.00,Wunderground v.1.15,2013-04-02 07:18:00,
2013-04-02 03:23:00,47.3,34.9,29.95,NNW,341,1.0,3.0,62,0.00,,,0.00,Wunderground v.1.15,2013-04-02 07:23:00,
2013-04-02 03:28:00,47.2,34.8,29.95,WNW,298,3.0,3.0,62,0.00,,,0.00,Wunderground v.1.15,2013-04-02 07:28:00,
2013-04-02 03:33:00,47.2,34.4,29.95,NW,314,0.0,3.0,61,0.00,,,0.00,Wunderground v.1.15,2013-04-02 07:33:00,
2013-04-02 03:38:00,47.1,34.7,29.95,WNW,298,2.0,3.0,62,0.00,,,0.00,Wunderground v.1.15,2013-04-02 07:38:00,
2013-04-02 03:43:00,46.9,34.6,29.95,NW,306,1.0,2.0,62,0.00,,,0.00,Wunderground v.1.15,2013-04-02 07:43:00,
2013-04-02 03:49:00,46.8,34.5,29.96,NW,314,0.0,7.0,62,0.00,,,0.00,Wunderground v.1.15,2013-04-02 07:49:00,
2013-04-02 03:54:00,46.7,34.0,29.96,NW,304,4.0,5.0,61,0.00,,,0.00,Wunderground v.1.15,2013-04-02 07:54:00,
2013-04-02 03:59:00,46.8,34.0,29.96,NW,317,1.0,5.0,61,0.00,,,0.00,Wunderground v.1.15,2013-04-02 07:59:00,
2013-04-02 04:04:00,46.7,34.0,29.96,WNW,296,0.0,6.0,61,0.00,,,0.00,Wunderground v.1.15,2013-04-02 08:04:00,
2013-04-02 04:09:00,46.6,33.9,29.96,WNW,297,1.0,6.0,61,0.00,,,0.00,Wunderground v.1.15,2013-04-02 08:09:00,
2013-04-02 04:14:00,46.6,34.3,29.96,NW,309,1.0,4.0,62,0.00,,,0.00,Wunderground v.1.15,2013-04-02 08:14:00,
2013-04-02 04:19:00,46.5,33.8,29.96,NW,306,0.0,4.0,61,0.00,,,0.00,Wunderground v.1.15,2013-04-02 08:19:00,
2013-04-02 04:24:00,46.3,34.0,29.97,NNW,334,1.0,1.0,62,0.00,,,0.00,Wunderground v.1.15,2013-04-02 08:24:00,
2013-04-02 04:29:00,46.2,33.9,29.97,NW,310,0.0,4.0,62,0.00,,,0.00,Wunderground v.1.15,2013-04-02 08:29:00,
2013-04-02 04:30:00,46.1,33.8,29.97,NW,315,1.0,6.0,62,0.00,,,-99.99,WeatherLink 6.0.0,2013-04-02 08:30:00,
2013-04-02 04:34:00,46.0,34.5,29.97,NW,310,0.0,1.0,64,0.00,,,0.00,Wunderground v.1.15,2013-04-02 08:34:00,
2013-04-02 04:39:00,45.9,33.6,29.97,WNW,296,1.0,5.0,62,0.00,,,0.00,Wunderground v.1.15,2013-04-02 08:39:00,
2013-04-02 04:44:00,45.9,33.6,29.97,WNW,296,0.0,2.0,62,0.00,,,0.00,Wunderground v.1.15,2013-04-02 08:44:00,
2013-04-02 04:49:00,45.8,33.5,29.98,WNW,290,0.0,2.0,62,0.00,,,0.00,Wunderground v.1.15,2013-04-02 08:49:00,
2013-04-02 04:54:00,45.6,33.3,29.98,WNW,287,2.0,2.0,62,0.00,,,0.00,Wunderground v.1.15,2013-04-02 08:54:00,
2013-04-02 04:59:00,45.6,33.3,29.98,WNW,293,0.0,2.0,62,0.00,,,0.00,Wunderground v.1.15,2013-04-02 08:59:00,
2013-04-02 05:04:00,45.5,33.2,29.98,WNW,294,0.0,2.0,62,0.00,,,0.00,Wunderground v.1.15,2013-04-02 09:04:00,
2013-04-02 05:09:00,45.6,33.3,29.99,WNW,298,3.0,4.0,62,0.00,,,0.00,Wunderground v.1.15,2013-04-02 09:09:00,
2013-04-02 05:14:00,45.7,33.4,29.98,WNW,292,1.0,4.0,62,0.00,,,0.00,Wunderground v.1.15,2013-04-02 09:14:00,
2013-04-02 05:19:00,45.6,33.3,29.99,NNW,334,0.0,1.0,62,0.00,,,0.00,Wunderground v.1.15,2013-04-02 09:19:00,
2013-04-02 05:24:00,45.5,33.2,29.99,North,5,0.0,2.0,62,0.00,,,0.00,Wunderground v.1.15,2013-04-02 09:24:00,
2013-04-02 05:29:00,45.1,33.6,30.00,North,360,0.0,0.0,64,0.00,,,0.00,Wunderground v.1.15,2013-04-02 09:29:00,
2013-04-02 05:34:00,44.8,33.4,30.00,North,5,0.0,0.0,64,0.00,,,0.00,Wunderground v.1.15,2013-04-02 09:34:00,
2013-04-02 05:39:00,44.2,32.8,30.00,North,5,0.0,0.0,64,0.00,,,0.00,Wunderground v.1.15,2013-04-02 09:39:00,
2013-04-02 05:44:00,43.8,32.8,30.00,NW,318,0.0,3.0,65,0.00,,,0.00,Wunderground v.1.15,2013-04-02 09:44:00,
2013-04-02 05:49:00,43.5,32.5,30.01,NE,44,1.0,1.0,65,0.00,,,0.00,Wunderground v.1.15,2013-04-02 09:49:00,
2013-04-02 05:54:00,43.5,32.1,30.01,NE,44,0.0,1.0,64,0.00,,,0.00,Wunderground v.1.15,2013-04-02 09:54:00,
2013-04-02 05:59:00,43.6,32.2,30.02,NE,44,1.0,1.0,64,0.00,,,0.00,Wunderground v.1.15,2013-04-02 09:59:00,
2013-04-02 06:04:00,43.5,32.5,30.02,NE,44,0.0,1.0,65,0.00,,,0.00,Wunderground v.1.15,2013-04-02 10:04:00,
2013-04-02 06:09:00,43.2,31.8,30.03,NE,44,0.0,0.0,64,0.00,,,0.00,Wunderground v.1.15,2013-04-02 10:09:00,
2013-04-02 06:14:00,42.9,31.9,30.03,NE,44,0.0,1.0,65,0.00,,,0.00,Wunderground v.1.15,2013-04-02 10:14:00,
2013-04-02 06:19:00,42.6,32.0,30.04,NE,44,0.0,0.0,66,0.00,,,0.00,Wunderground v.1.15,2013-04-02 10:19:00,
2013-04-02 06:24:00,42.3,32.1,30.04,NE,44,0.0,0.0,67,0.00,,,0.00,Wunderground v.1.15,2013-04-02 10:24:00,
2013-04-02 06:29:00,41.9,31.4,30.04,NE,44,0.0,0.0,66,0.00,,,0.00,Wunderground v.1.15,2013-04-02 10:29:00,
2013-04-02 06:34:00,41.6,31.4,30.05,NE,45,0.0,1.0,67,0.00,,,0.00,Wunderground v.1.15,2013-04-02 10:34:00,
2013-04-02 06:40:00,41.3,31.5,30.05,NE,46,0.0,0.0,68,0.00,,,0.00,Wunderground v.1.15,2013-04-02 10:40:00,
2013-04-02 06:45:00,40.9,31.9,30.05,NE,46,0.0,0.0,70,0.00,,,0.00,Wunderground v.1.15,2013-04-02 10:45:00,
2013-04-02 06:50:00,40.5,33.2,30.05,NE,46,0.0,0.0,75,0.00,,,0.00,Wunderground v.1.15,2013-04-02 10:50:00,
2013-04-02 06:55:00,40.3,33.3,30.05,NE,46,0.0,0.0,76,0.00,,,0.00,Wunderground v.1.15,2013-04-02 10:55:00,
2013-04-02 07:00:00,40.2,31.9,30.05,NE,45,0.0,0.0,72,0.00,,,0.00,Wunderground v.1.15,2013-04-02 11:00:00,
2013-04-02 07:05:00,39.8,31.5,30.06,NE,46,0.0,0.0,72,0.00,,,0.00,Wunderground v.1.15,2013-04-02 11:05:00,
2013-04-02 07:10:00,39.7,31.1,30.06,NE,40,0.0,0.0,71,0.00,,,0.00,Wunderground v.1.15,2013-04-02 11:10:00,
2013-04-02 07:15:00,39.5,31.2,30.07,NE,40,0.0,0.0,72,0.00,,,0.00,Wunderground v.1.15,2013-04-02 11:15:00,
2013-04-02 07:20:00,39.3,31.0,30.07,NE,40,0.0,0.0,72,0.00,,,0.00,Wunderground v.1.15,2013-04-02 11:20:00,
2013-04-02 07:25:00,39.1,31.2,30.08,NE,40,0.0,0.0,73,0.00,,,0.00,Wunderground v.1.15,2013-04-02 11:25:00,
2013-04-02 07:30:00,39.0,31.1,30.08,NE,40,0.0,0.0,73,0.00,,,0.00,Wunderground v.1.15,2013-04-02 11:30:00,
2013-04-02 07:35:00,39.1,31.8,30.08,NE,40,0.0,0.0,75,0.00,,,0.00,Wunderground v.1.15,2013-04-02 11:35:00,
2013-04-02 07:40:00,39.3,31.4,30.08,NE,40,0.0,0.0,73,0.00,,,0.00,Wunderground v.1.15,2013-04-02 11:40:00,
2013-04-02 07:45:00,39.8,31.8,30.08,NE,40,0.0,0.0,73,0.00,,,0.00,Wunderground v.1.15,2013-04-02 11:45:00,
2013-04-02 07:50:00,40.5,32.5,30.09,NE,40,0.0,0.0,73,0.00,,,0.00,Wunderground v.1.15,2013-04-02 11:50:00,
2013-04-02 07:55:00,40.9,32.2,30.09,NE,40,0.0,0.0,71,0.00,,,0.00,Wunderground v.1.15,2013-04-02 11:55:00,
2013-04-02 08:00:00,41.4,33.0,30.09,NE,40,0.0,0.0,72,0.00,,,0.00,Wunderground v.1.15,2013-04-02 12:00:00,
2013-04-02 08:05:00,42.1,33.4,30.09,NE,41,0.0,0.0,71,0.00,,,0.00,Wunderground v.1.15,2013-04-02 12:05:00,
2013-04-02 08:10:00,43.0,33.5,30.09,NE,41,0.0,0.0,69,0.00,,,0.00,Wunderground v.1.15,2013-04-02 12:10:00,
2013-04-02 08:15:00,43.8,32.4,30.09,NE,40,0.0,0.0,64,0.00,,,0.00,Wunderground v.1.15,2013-04-02 12:15:00,
2013-04-02 08:20:00,44.5,33.1,30.09,NE,40,0.0,0.0,64,0.00,,,0.00,Wunderground v.1.15,2013-04-02 12:20:00,
2013-04-02 08:25:00,45.0,33.5,30.09,NE,40,0.0,0.0,64,0.00,,,0.00,Wunderground v.1.15,2013-04-02 12:25:00,
2013-04-02 08:30:00,45.5,32.8,30.09,NW,307,0.0,0.0,61,0.00,,,0.00,Wunderground v.1.15,2013-04-02 12:30:00,
2013-04-02 08:35:00,45.7,32.2,30.09,WNW,300,1.0,2.0,59,0.00,,,0.00,Wunderground v.1.15,2013-04-02 12:35:00,
2013-04-02 08:40:00,45.6,32.1,30.10,NW,306,0.0,2.0,59,0.00,,,0.00,Wunderground v.1.15,2013-04-02 12:40:00,
2013-04-02 08:45:00,45.8,32.3,30.10,NW,308,2.0,3.0,59,0.00,,,0.00,Wunderground v.1.15,2013-04-02 12:45:00,
2013-04-02 08:50:00,45.9,31.9,30.10,NNE,32,4.0,4.0,58,0.00,,,0.00,Wunderground v.1.15,2013-04-02 12:50:00,
2013-04-02 08:55:00,46.4,32.4,30.10,WNW,302,0.0,5.0,58,0.00,,,0.00,Wunderground v.1.15,2013-04-02 12:55:00,
2013-04-02 09:00:00,46.5,32.5,30.10,North,9,0.0,1.0,58,0.00,,,0.00,Wunderground v.1.15,2013-04-02 13:00:00,
2013-04-02 09:05:00,47.0,32.1,30.11,NW,306,0.0,3.0,56,0.00,,,0.00,Wunderground v.1.15,2013-04-02 13:05:00,
2013-04-02 09:10:00,47.1,31.7,30.11,NNE,32,1.0,2.0,55,0.00,,,0.00,Wunderground v.1.15,2013-04-02 13:10:00,
2013-04-02 09:15:00,47.4,32.0,30.11,NE,44,1.0,4.0,55,0.00,,,0.00,Wunderground v.1.15,2013-04-02 13:15:00,
2013-04-02 09:20:00,47.4,31.6,30.11,NW,308,3.0,3.0,54,0.00,,,0.00,Wunderground v.1.15,2013-04-02 13:20:00,
2013-04-02 09:25:00,47.0,32.1,30.10,NW,306,0.0,10.0,56,0.00,,,0.00,Wunderground v.1.15,2013-04-02 13:25:00,
2013-04-02 09:30:00,47.0,31.7,30.10,WNW,288,1.0,3.0,55,0.00,,,0.00,Wunderground v.1.15,2013-04-02 13:30:00,
2013-04-02 09:36:00,47.2,31.8,30.10,WNW,295,4.0,5.0,55,0.00,,,0.00,Wunderground v.1.15,2013-04-02 13:36:00,
2013-04-02 09:41:00,47.2,31.4,30.10,North,351,1.0,4.0,54,0.00,,,0.00,Wunderground v.1.15,2013-04-02 13:41:00,
2013-04-02 09:46:00,47.5,32.1,30.10,NNE,33,2.0,5.0,55,0.00,,,0.00,Wunderground v.1.15,2013-04-02 13:46:00,
2013-04-02 09:51:00,48.1,31.8,30.10,WNW,302,0.0,2.0,53,0.00,,,0.00,Wunderground v.1.15,2013-04-02 13:51:00,
2013-04-02 09:55:00,48.2,31.4,30.10,NE,44,1.0,8.0,52,0.00,,,0.00,Wunderground v.1.15,2013-04-02 13:55:00,
2013-04-02 10:00:00,48.3,31.5,30.10,WNW,294,3.0,5.0,52,0.00,,,0.00,Wunderground v.1.15,2013-04-02 14:00:00,
2013-04-02 10:06:00,48.5,31.7,30.10,NNE,25,0.0,7.0,52,0.00,,,0.00,Wunderground v.1.15,2013-04-02 14:06:00,
2013-04-02 10:11:00,49.1,31.2,30.10,NE,43,0.0,4.0,50,0.00,,,0.00,Wunderground v.1.15,2013-04-02 14:11:00,
2013-04-02 10:16:00,50.0,33.1,30.10,NE,43,0.0,4.0,52,0.00,,,0.00,Wunderground v.1.15,2013-04-02 14:16:00,
2013-04-02 10:21:00,50.2,31.2,30.11,West,281,6.0,9.0,48,0.00,,,0.00,Wunderground v.1.15,2013-04-02 14:21:00,
2013-04-02 10:26:00,49.9,31.5,30.11,NNE,29,1.0,9.0,49,0.00,,,0.00,Wunderground v.1.15,2013-04-02 14:26:00,
2013-04-02 10:31:00,50.2,31.2,30.11,NNE,32,0.0,2.0,48,0.00,,,0.00,Wunderground v.1.15,2013-04-02 14:31:00,
2013-04-02 10:36:00,51.0,32.5,30.10,WNW,291,1.0,4.0,49,0.00,,,0.00,Wunderground v.1.15,2013-04-02 14:36:00,
2013-04-02 10:41:00,50.7,31.2,30.10,NE,46,1.0,6.0,47,0.00,,,0.00,Wunderground v.1.15,2013-04-02 14:41:00,
2013-04-02 10:47:00,51.1,31.0,30.11,NNW,330,5.0,6.0,46,0.00,,,0.00,Wunderground v.1.15,2013-04-02 14:47:00,
2013-04-02 10:52:00,50.9,30.8,30.11,NW,305,6.0,8.0,46,0.00,,,0.00,Wunderground v.1.15,2013-04-02 14:52:00,
2013-04-02 10:57:00,50.6,30.6,30.10,West,281,0.0,9.0,46,0.00,,,0.00,Wunderground v.1.15,2013-04-02 14:57:00,
2013-04-02 11:02:00,51.2,31.6,30.11,WNW,295,2.0,5.0,47,0.00,,,0.00,Wunderground v.1.15,2013-04-02 15:02:00,
2013-04-02 11:07:00,51.8,31.1,30.11,WNW,296,0.0,5.0,45,0.00,,,0.00,Wunderground v.1.15,2013-04-02 15:07:00,
2013-04-02 11:12:00,52.3,31.6,30.11,WNW,294,0.0,4.0,45,0.00,,,0.00,Wunderground v.1.15,2013-04-02 15:12:00,
2013-04-02 11:17:00,52.8,32.0,30.10,West,279,2.0,6.0,45,0.00,,,0.00,Wunderground v.1.15,2013-04-02 15:17:00,
2013-04-02 11:22:00,53.4,31.4,30.10,SW,214,1.0,3.0,43,0.00,,,0.00,Wunderground v.1.15,2013-04-02 15:22:00,
2013-04-02 11:27:00,53.5,30.4,30.11,WNW,302,0.0,8.0,41,0.00,,,0.00,Wunderground v.1.15,2013-04-02 15:27:00,
2013-04-02 11:32:00,53.1,31.2,30.11,WNW,290,4.0,9.0,43,0.00,,,0.00,Wunderground v.1.15,2013-04-02 15:32:00,
2013-04-02 11:37:00,53.0,30.5,30.10,NW,309,2.0,9.0,42,0.00,,,0.00,Wunderground v.1.15,2013-04-02 15:37:00,
2013-04-02 11:43:00,53.0,28.7,30.10,NNW,336,0.0,10.0,39,0.00,,,0.00,Wunderground v.1.15,2013-04-02 15:43:00,
2013-04-02 11:48:00,53.5,29.7,30.10,NNW,327,0.0,10.0,40,0.00,,,0.00,Wunderground v.1.15,2013-04-02 15:48:00,
2013-04-02 11:53:00,53.9,28.8,30.10,NW,307,4.0,6.0,38,0.00,,,0.00,Wunderground v.1.15,2013-04-02 15:53:00,
2013-04-02 11:58:00,53.7,28.7,30.10,WNW,292,3.0,13.0,38,0.00,,,0.00,Wunderground v.1.15,2013-04-02 15:58:00,
2013-04-02 12:03:00,53.6,28.6,30.10,NW,315,3.0,14.0,38,0.00,,,-99.99,WeatherLink 6.0.0,2013-04-02 16:03:00,
2013-04-02 12:08:00,54.5,27.4,30.09,West,279,2.0,7.0,35,0.00,,,0.00,Wunderground v.1.15,2013-04-02 16:08:00,
2013-04-02 12:13:00,54.8,25.5,30.09,NW,313,3.0,10.0,32,0.00,,,0.00,Wunderground v.1.15,2013-04-02 16:13:00,
2013-04-02 12:18:00,54.5,26.0,30.09,West,259,4.0,10.0,33,0.00,,,0.00,Wunderground v.1.15,2013-04-02 16:18:00,
2013-04-02 12:23:00,55.0,27.1,30.09,West,269,0.0,3.0,34,0.00,,,0.00,Wunderground v.1.15,2013-04-02 16:23:00,
2013-04-02 12:28:00,55.8,27.8,30.08,West,264,4.0,7.0,34,0.00,,,0.00,Wunderground v.1.15,2013-04-02 16:28:00,
2013-04-02 12:33:00,55.6,23.0,30.08,WNW,293,4.0,13.0,28,0.00,,,0.00,Wunderground v.1.15,2013-04-02 16:33:00,
2013-04-02 12:38:00,55.5,24.5,30.08,WNW,290,2.0,13.0,30,0.00,,,0.00,Wunderground v.1.15,2013-04-02 16:38:00,
2013-04-02 12:43:00,55.5,24.5,30.08,WNW,290,10.0,16.0,30,0.00,,,0.00,Wunderground v.1.15,2013-04-02 16:43:00,
2013-04-02 12:48:00,55.5,22.0,30.08,West,280,3.0,16.0,27,0.00,,,0.00,Wunderground v.1.15,2013-04-02 16:48:00,
2013-04-02 12:53:00,55.8,22.3,30.07,East,96,1.0,13.0,27,0.00,,,0.00,Wunderground v.1.15,2013-04-02 16:53:00,
2013-04-02 12:58:00,56.5,24.6,30.08,NW,323,5.0,13.0,29,0.00,,,0.00,Wunderground v.1.15,2013-04-02 16:58:00,
2013-04-02 13:03:00,56.0,22.4,30.08,WNW,303,4.0,12.0,27,0.00,,,0.00,Wunderground v.1.15,2013-04-02 17:03:00,
2013-04-02 13:08:00,56.1,21.6,30.07,WNW,283,4.0,12.0,26,0.00,,,0.00,Wunderground v.1.15,2013-04-02 17:08:00,
2013-04-02 13:14:00,56.5,22.9,30.08,NW,312,6.0,6.0,27,0.00,,,0.00,Wunderground v.1.15,2013-04-02 17:14:00,
2013-04-02 13:19:00,56.2,23.5,30.08,WNW,296,5.0,15.0,28,0.00,,,0.00,Wunderground v.1.15,2013-04-02 17:19:00,
2013-04-02 13:24:00,56.4,24.5,30.07,NE,34,1.0,11.0,29,0.00,,,0.00,Wunderground v.1.15,2013-04-02 17:24:00,
2013-04-02 13:29:00,56.0,22.4,30.07,NNW,348,6.0,14.0,27,0.00,,,0.00,Wunderground v.1.15,2013-04-02 17:29:00,
2013-04-02 13:30:00,56.0,22.4,30.07,NW,315,6.0,18.0,27,0.00,,,-99.99,WeatherLink 6.0.0,2013-04-02 17:30:00,
2013-04-02 13:34:00,56.2,25.1,30.07,WNW,290,4.0,12.0,30,0.00,,,0.00,Wunderground v.1.15,2013-04-02 17:34:00,
2013-04-02 13:39:00,56.9,24.9,30.07,WNW,287,3.0,5.0,29,0.00,,,0.00,Wunderground v.1.15,2013-04-02 17:39:00,
2013-04-02 13:44:00,57.1,23.4,30.06,WNW,295,10.0,10.0,27,0.00,,,0.00,Wunderground v.1.15,2013-04-02 17:44:00,
2013-04-02 13:49:00,56.8,25.7,30.06,WNW,302,10.0,11.0,30,0.00,,,0.00,Wunderground v.1.15,2013-04-02 17:49:00,
2013-04-02 13:54:00,56.6,23.8,30.05,West,271,3.0,13.0,28,0.00,,,0.00,Wunderground v.1.15,2013-04-02 17:54:00,
2013-04-02 13:59:00,57.1,23.4,30.05,WNW,297,4.0,7.0,27,0.00,,,0.00,Wunderground v.1.15,2013-04-02 17:59:00,
2013-04-02 14:04:00,57.5,21.9,30.04,NW,315,1.0,11.0,25,0.00,,,0.00,Wunderground v.1.15,2013-04-02 18:04:00,
2013-04-02 14:09:00,57.3,20.8,30.04,SW,229,2.0,5.0,24,0.00,,,0.00,Wunderground v.1.15,2013-04-02 18:09:00,
2013-04-02 14:14:00,57.8,22.2,30.04,NW,320,9.0,11.0,25,0.00,,,0.00,Wunderground v.1.15,2013-04-02 18:14:00,
2013-04-02 14:19:00,58.1,22.4,30.04,NW,311,7.0,7.0,25,0.00,,,0.00,Wunderground v.1.15,2013-04-02 18:19:00,
2013-04-02 14:24:00,58.5,23.7,30.03,NE,38,2.0,9.0,26,0.00,,,0.00,Wunderground v.1.15,2013-04-02 18:24:00,
2013-04-02 14:29:00,59.3,27.0,30.03,NW,309,6.0,7.0,29,0.00,,,0.00,Wunderground v.1.15,2013-04-02 18:29:00,
2013-04-02 14:30:00,59.4,24.5,30.03,NW,315,4.0,17.0,26,0.00,,,-99.99,WeatherLink 6.0.0,2013-04-02 18:30:00,
2013-04-02 14:34:00,59.9,24.9,30.02,SSW,205,2.0,7.0,26,0.00,,,0.00,Wunderground v.1.15,2013-04-02 18:34:00,
2013-04-02 14:39:00,60.5,23.5,30.02,NW,317,4.0,5.0,24,0.00,,,0.00,Wunderground v.1.15,2013-04-02 18:39:00,
2013-04-02 14:44:00,60.6,23.6,30.02,NNW,344,2.0,7.0,24,0.00,,,0.00,Wunderground v.1.15,2013-04-02 18:44:00,
2013-04-02 14:49:00,60.7,24.6,30.02,WNW,298,6.0,6.0,25,0.00,,,0.00,Wunderground v.1.15,2013-04-02 18:49:00,
2013-04-02 14:55:00,60.1,25.1,30.02,WNW,284,0.0,8.0,26,0.00,,,0.00,Wunderground v.1.15,2013-04-02 18:55:00,
2013-04-02 15:00:00,60.4,25.3,30.02,NE,45,1.0,4.0,26,0.00,,,0.00,Wunderground v.1.15,2013-04-02 19:00:00,
2013-04-02 15:05:00,61.0,23.9,30.01,SW,227,0.0,6.0,24,0.00,,,0.00,Wunderground v.1.15,2013-04-02 19:05:00,
2013-04-02 15:10:00,61.3,24.2,30.02,WNW,292,1.0,5.0,24,0.00,,,0.00,Wunderground v.1.15,2013-04-02 19:10:00,
2013-04-02 15:15:00,61.1,23.0,30.01,NW,314,3.0,10.0,23,0.00,,,0.00,Wunderground v.1.15,2013-04-02 19:15:00,
2013-04-02 15:20:00,60.9,23.8,30.01,WNW,299,5.0,10.0,24,0.00,,,0.00,Wunderground v.1.15,2013-04-02 19:20:00,
2013-04-02 15:25:00,60.9,24.8,30.00,NNE,26,2.0,10.0,25,0.00,,,0.00,Wunderground v.1.15,2013-04-02 19:25:00,
2013-04-02 15:31:00,61.3,27.0,30.00,West,274,7.0,7.0,27,0.00,,,0.00,Wunderground v.1.15,2013-04-02 19:31:00,
2013-04-02 15:36:00,61.6,26.3,30.00,WNW,292,2.0,7.0,26,0.00,,,0.00,Wunderground v.1.15,2013-04-02 19:36:00,
2013-04-02 15:41:00,61.8,25.6,30.00,NW,313,4.0,8.0,25,0.00,,,0.00,Wunderground v.1.15,2013-04-02 19:41:00,
2013-04-02 15:47:00,61.9,25.7,30.00,West,275,4.0,8.0,25,0.00,,,0.00,Wunderground v.1.15,2013-04-02 19:47:00,
2013-04-02 15:52:00,61.4,27.1,30.00,West,279,7.0,7.0,27,0.00,,,0.00,Wunderground v.1.15,2013-04-02 19:52:00,
2013-04-02 15:58:00,61.6,25.4,29.99,WNW,292,4.0,12.0,25,0.00,,,0.00,Wunderground v.1.15,2013-04-02 19:58:00,
2013-04-02 16:03:00,61.3,27.0,29.99,WNW,292,4.0,13.0,27,0.00,,,-99.99,WeatherLink 6.0.0,2013-04-02 20:03:00,
2013-04-02 16:08:00,61.4,27.1,29.99,NE,49,7.0,10.0,27,0.00,,,0.00,Wunderground v.1.15,2013-04-02 20:08:00,
2013-04-02 16:13:00,61.7,26.4,29.99,WNW,289,4.0,7.0,26,0.00,,,0.00,Wunderground v.1.15,2013-04-02 20:13:00,
2013-04-02 16:18:00,62.0,26.7,29.98,NW,315,5.0,10.0,26,0.00,,,0.00,Wunderground v.1.15,2013-04-02 20:18:00,
2013-04-02 16:23:00,61.8,27.4,29.98,West,279,7.0,10.0,27,0.00,,,0.00,Wunderground v.1.15,2013-04-02 20:23:00,
2013-04-02 16:28:00,61.6,26.3,29.98,NW,304,8.0,11.0,26,0.00,,,0.00,Wunderground v.1.15,2013-04-02 20:28:00,
2013-04-02 16:34:00,61.4,27.1,29.99,WNW,303,11.0,11.0,27,0.00,,,0.00,Wunderground v.1.15,2013-04-02 20:34:00,
2013-04-02 16:39:00,61.6,27.3,29.98,NW,304,10.0,11.0,27,0.00,,,0.00,Wunderground v.1.15,2013-04-02 20:39:00,
2013-04-02 16:44:00,61.7,27.3,29.99,WNW,296,4.0,7.0,27,0.00,,,0.00,Wunderground v.1.15,2013-04-02 20:44:00,
2013-04-02 16:49:00,61.8,29.2,29.99,WNW,286,5.0,10.0,29,0.00,,,0.00,Wunderground v.1.15,2013-04-02 20:49:00,
2013-04-02 16:54:00,61.6,28.1,29.98,WNW,302,10.0,10.0,28,0.00,,,0.00,Wunderground v.1.15,2013-04-02 20:54:00,
2013-04-02 16:59:00,61.6,29.0,29.98,NW,314,2.0,10.0,29,0.00,,,0.00,Wunderground v.1.15,2013-04-02 20:59:00,
2013-04-02 17:04:00,61.4,29.7,29.99,WNW,291,6.0,11.0,30,0.00,,,0.00,Wunderground v.1.15,2013-04-02 21:04:00,
2013-04-02 17:09:00,61.2,31.8,29.99,WNW,300,2.0,11.0,33,0.00,,,0.00,Wunderground v.1.15,2013-04-02 21:09:00,
2013-04-02 17:14:00,61.1,30.2,29.99,NW,306,2.0,9.0,31,0.00,,,0.00,Wunderground v.1.15,2013-04-02 21:14:00,
2013-04-02 17:19:00,61.2,26.0,29.98,NW,308,4.0,9.0,26,0.00,,,0.00,Wunderground v.1.15,2013-04-02 21:19:00,
2013-04-02 17:24:00,61.4,28.8,29.98,WNW,301,4.0,5.0,29,0.00,,,0.00,Wunderground v.1.15,2013-04-02 21:24:00,
2013-04-02 17:30:00,61.8,28.3,29.99,West,277,5.0,5.0,28,0.00,,,0.00,Wunderground v.1.15,2013-04-02 21:30:00,
2013-04-02 17:35:00,61.6,29.0,29.99,WNW,296,4.0,5.0,29,0.00,,,0.00,Wunderground v.1.15,2013-04-02 21:35:00,
2013-04-02 17:40:00,61.3,27.9,29.98,NNW,345,2.0,6.0,28,0.00,,,0.00,Wunderground v.1.15,2013-04-02 21:40:00,
2013-04-02 17:45:00,60.9,27.5,29.99,WNW,287,2.0,7.0,28,0.00,,,0.00,Wunderground v.1.15,2013-04-02 21:45:00,
2013-04-02 17:50:00,60.9,29.2,29.99,WNW,295,0.0,3.0,30,0.00,,,0.00,Wunderground v.1.15,2013-04-02 21:50:00,
2013-04-02 17:55:00,61.0,28.5,29.99,WNW,292,1.0,6.0,29,0.00,,,0.00,Wunderground v.1.15,2013-04-02 21:55:00,
2013-04-02 18:00:00,60.8,29.9,29.99,WNW,292,1.0,2.0,31,0.00,,,0.00,Wunderground v.1.15,2013-04-02 22:00:00,
2013-04-02 18:05:00,60.6,29.8,29.99,WNW,293,1.0,4.0,31,0.00,,,0.00,Wunderground v.1.15,2013-04-02 22:05:00,
2013-04-02 18:10:00,60.4,28.0,30.00,NW,321,0.0,1.0,29,0.00,,,0.00,Wunderground v.1.15,2013-04-02 22:10:00,
2013-04-02 18:15:00,60.2,29.4,30.00,NW,321,0.0,3.0,31,0.00,,,0.00,Wunderground v.1.15,2013-04-02 22:15:00,
2013-04-02 18:20:00,60.1,30.9,30.00,NW,307,0.0,1.0,33,0.00,,,0.00,Wunderground v.1.15,2013-04-02 22:20:00,
2013-04-02 18:26:00,60.2,29.4,30.00,NW,315,0.0,1.0,31,0.00,,,0.00,Wunderground v.1.15,2013-04-02 22:26:00,
2013-04-02 18:31:00,60.3,29.5,30.00,NW,315,0.0,2.0,31,0.00,,,0.00,Wunderground v.1.15,2013-04-02 22:31:00,
2013-04-02 18:36:00,60.3,28.7,30.00,NW,315,0.0,2.0,30,0.00,,,0.00,Wunderground v.1.15,2013-04-02 22:36:00,
2013-04-02 18:41:00,60.4,29.6,30.01,NW,315,0.0,0.0,31,0.00,,,0.00,Wunderground v.1.15,2013-04-02 22:41:00,
2013-04-02 18:46:00,60.3,28.7,30.01,NW,315,0.0,1.0,30,0.00,,,0.00,Wunderground v.1.15,2013-04-02 22:46:00,
2013-04-02 18:52:00,60.1,28.5,30.01,NW,316,0.0,3.0,30,0.00,,,0.00,Wunderground v.1.15,2013-04-02 22:52:00,
2013-04-02 18:57:00,59.8,28.3,30.01,WNW,295,2.0,5.0,30,0.00,,,0.00,Wunderground v.1.15,2013-04-02 22:57:00,
2013-04-02 19:00:00,59.6,28.1,30.01,NW,315,1.0,7.0,30,0.00,,,-99.99,WeatherLink 6.0.0,2013-04-02 23:00:00,
2013-04-02 19:02:00,59.4,27.9,30.02,WNW,288,3.0,4.0,30,0.00,,,0.00,Wunderground v.1.15,2013-04-02 23:02:00,
2013-04-02 19:07:00,59.0,26.8,30.02,WNW,290,0.0,5.0,29,0.00,,,0.00,Wunderground v.1.15,2013-04-02 23:07:00,
2013-04-02 19:12:00,59.0,26.8,30.01,WNW,290,3.0,3.0,29,0.00,,,0.00,Wunderground v.1.15,2013-04-02 23:12:00,
2013-04-02 19:17:00,58.4,27.1,30.01,NW,313,1.0,5.0,30,0.00,,,0.00,Wunderground v.1.15,2013-04-02 23:17:00,
2013-04-02 19:23:00,58.1,25.1,30.02,NNW,339,0.0,3.0,28,0.00,,,0.00,Wunderground v.1.15,2013-04-02 23:23:00,
2013-04-02 19:28:00,57.8,25.7,30.02,NNW,338,0.0,3.0,29,0.00,,,0.00,Wunderground v.1.15,2013-04-02 23:28:00,
2013-04-02 19:33:00,57.6,25.5,30.02,NW,310,2.0,3.0,29,0.00,,,0.00,Wunderground v.1.15,2013-04-02 23:33:00,
2013-04-02 19:38:00,57.4,25.4,30.02,NE,37,2.0,4.0,29,0.00,,,0.00,Wunderground v.1.15,2013-04-02 23:38:00,
2013-04-02 19:43:00,57.1,27.5,30.03,NNE,32,1.0,2.0,32,0.00,,,0.00,Wunderground v.1.15,2013-04-02 23:43:00,
2013-04-02 19:48:00,56.6,26.3,30.03,NW,321,0.0,5.0,31,0.00,,,0.00,Wunderground v.1.15,2013-04-02 23:48:00,
2013-04-02 19:53:00,56.2,26.7,30.03,WNW,302,1.0,2.0,32,0.00,,,0.00,Wunderground v.1.15,2013-04-02 23:53:00,
2013-04-02 19:58:00,55.7,27.0,30.03,WNW,294,0.0,3.0,33,0.00,,,0.00,Wunderground v.1.15,2013-04-02 23:58:00,
2013-04-02 20:04:00,55.3,26.7,30.03,WNW,295,1.0,2.0,33,0.00,,,0.00,Wunderground v.1.15,2013-04-03 00:04:00,
2013-04-02 20:09:00,55.1,26.5,30.03,WNW,298,0.0,3.0,33,0.00,,,0.00,Wunderground v.1.15,2013-04-03 00:09:00,
2013-04-02 20:14:00,55.0,27.1,30.03,NW,315,2.0,9.0,34,0.00,,,0.00,Wunderground v.1.15,2013-04-03 00:14:00,
2013-04-02 20:19:00,54.8,26.9,30.03,NNW,333,1.0,9.0,34,0.00,,,0.00,Wunderground v.1.15,2013-04-03 00:19:00,
2013-04-02 20:24:00,54.6,27.5,30.03,NE,34,0.0,2.0,35,0.00,,,0.00,Wunderground v.1.15,2013-04-03 00:24:00,
2013-04-02 20:29:00,54.5,26.7,30.03,NNE,28,0.0,3.0,34,0.00,,,0.00,Wunderground v.1.15,2013-04-03 00:29:00,
2013-04-02 20:34:00,54.5,26.7,30.03,NNE,28,0.0,2.0,34,0.00,,,0.00,Wunderground v.1.15,2013-04-03 00:34:00,
2013-04-02 20:39:00,54.4,26.6,30.03,NE,38,0.0,2.0,34,0.00,,,0.00,Wunderground v.1.15,2013-04-03 00:39:00,
2013-04-02 20:44:00,54.3,27.2,30.04,NE,37,0.0,2.0,35,0.00,,,0.00,Wunderground v.1.15,2013-04-03 00:44:00,
2013-04-02 20:49:00,54.2,28.5,30.04,NE,37,0.0,0.0,37,0.00,,,0.00,Wunderground v.1.15,2013-04-03 00:49:00,
2013-04-02 20:54:00,54.0,26.9,30.04,NE,36,0.0,3.0,35,0.00,,,0.00,Wunderground v.1.15,2013-04-03 00:54:00,
2013-04-02 20:59:00,53.9,26.8,30.05,NE,42,1.0,1.0,35,0.00,,,0.00,Wunderground v.1.15,2013-04-03 00:59:00,
2013-04-02 21:04:00,53.7,28.0,30.04,NE,42,0.0,2.0,37,0.00,,,0.00,Wunderground v.1.15,2013-04-03 01:04:00,
2013-04-02 21:09:00,53.6,27.3,30.05,NNE,15,1.0,1.0,36,0.00,,,0.00,Wunderground v.1.15,2013-04-03 01:09:00,
2013-04-02 21:14:00,53.3,27.0,30.05,WNW,284,1.0,5.0,36,0.00,,,0.00,Wunderground v.1.15,2013-04-03 01:14:00,
2013-04-02 21:20:00,53.1,27.5,30.04,NNE,24,2.0,2.0,37,0.00,,,0.00,Wunderground v.1.15,2013-04-03 01:20:00,
2013-04-02 21:25:00,52.9,26.6,30.06,NNE,14,1.0,3.0,36,0.00,,,0.00,Wunderground v.1.15,2013-04-03 01:25:00,
2013-04-02 21:30:00,52.8,26.6,30.06,NNW,340,1.0,1.0,36,0.00,,,0.00,Wunderground v.1.15,2013-04-03 01:30:00,
2013-04-02 21:35:00,52.8,27.2,30.06,NNE,24,2.0,2.0,37,0.00,,,0.00,Wunderground v.1.15,2013-04-03 01:35:00,
2013-04-02 21:40:00,52.7,25.1,30.06,NE,38,0.0,2.0,34,0.00,,,0.00,Wunderground v.1.15,2013-04-03 01:40:00,
2013-04-02 21:45:00,52.7,25.1,30.07,NNE,29,2.0,5.0,34,0.00,,,0.00,Wunderground v.1.15,2013-04-03 01:45:00,
2013-04-02 21:50:00,52.7,26.5,30.07,NNE,29,0.0,1.0,36,0.00,,,0.00,Wunderground v.1.15,2013-04-03 01:50:00,
2013-04-02 21:56:00,52.7,25.1,30.07,NE,40,0.0,1.0,34,0.00,,,0.00,Wunderground v.1.15,2013-04-03 01:56:00,
2013-04-02 22:01:00,52.6,26.4,30.06,NNE,25,1.0,7.0,36,0.00,,,0.00,Wunderground v.1.15,2013-04-03 02:01:00,
2013-04-02 22:06:00,52.5,25.6,30.06,NE,38,0.0,7.0,35,0.00,,,0.00,Wunderground v.1.15,2013-04-03 02:06:00,
2013-04-02 22:11:00,52.4,26.2,30.07,NE,39,0.0,1.0,36,0.00,,,0.00,Wunderground v.1.15,2013-04-03 02:11:00,
2013-04-02 22:16:00,52.2,25.3,30.06,NE,39,1.0,1.0,35,0.00,,,0.00,Wunderground v.1.15,2013-04-03 02:16:00,
2013-04-02 22:21:00,52.1,24.6,30.07,NNE,32,1.0,2.0,34,0.00,,,0.00,Wunderground v.1.15,2013-04-03 02:21:00,
2013-04-02 22:26:00,52.1,25.9,30.07,NNE,32,0.0,2.0,36,0.00,,,0.00,Wunderground v.1.15,2013-04-03 02:26:00,
2013-04-02 22:30:00,52.1,25.9,30.07,NE,45,0.0,3.0,36,0.00,,,-99.99,WeatherLink 6.0.0,2013-04-03 02:30:00,
2013-04-02 22:31:00,52.1,25.3,30.07,NNE,25,0.0,1.0,35,0.00,,,0.00,Wunderground v.1.15,2013-04-03 02:31:00,
2013-04-02 22:36:00,51.9,25.1,30.07,NNE,26,0.0,1.0,35,0.00,,,0.00,Wunderground v.1.15,2013-04-03 02:36:00,
2013-04-02 22:41:00,51.9,25.8,30.07,NNE,27,1.0,1.0,36,0.00,,,0.00,Wunderground v.1.15,2013-04-03 02:41:00,
2013-04-02 22:46:00,51.8,25.0,30.07,NNE,30,0.0,2.0,35,0.00,,,0.00,Wunderground v.1.15,2013-04-03 02:46:00,
2013-04-02 22:51:00,51.7,25.6,30.08,NNW,331,0.0,2.0,36,0.00,,,0.00,Wunderground v.1.15,2013-04-03 02:51:00,
2013-04-02 22:56:00,51.7,24.9,30.07,NNW,344,0.0,2.0,35,0.00,,,0.00,Wunderground v.1.15,2013-04-03 02:56:00,
2013-04-02 23:02:00,51.6,26.1,30.07,NNW,344,1.0,1.0,37,0.00,,,0.00,Wunderground v.1.15,2013-04-03 03:02:00,
2013-04-02 23:07:00,51.5,26.7,30.07,North,350,0.0,1.0,38,0.00,,,0.00,Wunderground v.1.15,2013-04-03 03:07:00,
2013-04-02 23:13:00,51.4,25.3,30.08,North,350,0.0,1.0,36,0.00,,,0.00,Wunderground v.1.15,2013-04-03 03:13:00,
2013-04-02 23:18:00,51.3,25.2,30.08,NE,46,0.0,3.0,36,0.00,,,0.00,Wunderground v.1.15,2013-04-03 03:18:00,
2013-04-02 23:23:00,51.3,25.2,30.08,ENE,57,0.0,2.0,36,0.00,,,0.00,Wunderground v.1.15,2013-04-03 03:23:00,
2013-04-02 23:28:00,51.2,26.4,30.08,ENE,57,1.0,2.0,38,0.00,,,0.00,Wunderground v.1.15,2013-04-03 03:28:00,
2013-04-02 23:30:00,51.2,26.4,30.08,NE,45,0.0,4.0,38,0.00,,,-99.99,WeatherLink 6.0.0,2013-04-03 03:30:00,
2013-04-02 23:34:00,51.1,26.3,30.08,NNE,24,0.0,1.0,38,0.00,,,0.00,Wunderground v.1.15,2013-04-03 03:34:00,
2013-04-02 23:39:00,51.0,25.6,30.08,North,9,0.0,3.0,37,0.00,,,0.00,Wunderground v.1.15,2013-04-03 03:39:00,
2013-04-02 23:44:00,50.8,26.7,30.08,North,5,1.0,1.0,39,0.00,,,0.00,Wunderground v.1.15,2013-04-03 03:44:00,
2013-04-02 23:49:00,50.7,25.3,30.08,NNW,344,0.0,3.0,37,0.00,,,0.00,Wunderground v.1.15,2013-04-03 03:49:00,
2013-04-02 23:54:00,50.6,25.3,30.08,North,355,0.0,2.0,37,0.00,,,0.00,Wunderground v.1.15,2013-04-03 03:54:00,
2013-04-02 23:59:00,50.6,26.5,30.08,NNE,13,0.0,2.0,39,0.00,,,0.00,Wunderground v.1.15,2013-04-03 03:59:00,